sensor_id;sensor_type;location;lat;lon;timestamp;P1;durP1;ratioP1;P2;durP2;ratioP2
8982;SDS011;20979;59.850;10.660;2024-03-22T00:02:17;1.50;;;0.80;;
8982;SDS011;20979;59.850;10.660;2024-03-22T00:04:44;0.90;;;0.80;;
8982;SDS011;20979;59.850;10.660;2024-03-22T00:07:11;1.93;;;0.73;;
8982;SDS011;20979;59.850;10.660;2024-03-22T00:09:38;0.70;;;0.70;;
8982;SDS011;20979;59.850;10.660;2024-03-22T00:12:05;1.13;;;1.00;;
8982;SDS011;20979;59.850;10.660;2024-03-22T00:14:33;1.80;;;0.80;;
8982;SDS011;20979;59.850;10.660;2024-03-22T00:17:00;4.20;;;0.87;;
8982;SDS011;20979;59.850;10.660;2024-03-22T00:19:27;1.67;;;0.80;;
8982;SDS011;20979;59.850;10.660;2024-03-22T00:21:54;1.00;;;0.60;;
8982;SDS011;20979;59.850;10.660;2024-03-22T00:24:21;0.70;;;0.60;;
8982;SDS011;20979;59.850;10.660;2024-03-22T00:26:48;3.20;;;0.70;;
8982;SDS011;20979;59.850;10.660;2024-03-22T00:29:14;1.47;;;0.70;;
8982;SDS011;20979;59.850;10.660;2024-03-22T00:31:43;1.10;;;0.67;;
8982;SDS011;20979;59.850;10.660;2024-03-22T00:34:10;1.10;;;0.80;;
8982;SDS011;20979;59.850;10.660;2024-03-22T00:36:37;2.43;;;0.63;;
8982;SDS011;20979;59.850;10.660;2024-03-22T00:39:04;1.33;;;0.70;;
8982;SDS011;20979;59.850;10.660;2024-03-22T00:41:31;0.93;;;0.90;;
8982;SDS011;20979;59.850;10.660;2024-03-22T00:43:57;1.90;;;0.90;;
8982;SDS011;20979;59.850;10.660;2024-03-22T00:46:25;2.60;;;1.03;;
8982;SDS011;20979;59.850;10.660;2024-03-22T00:48:53;0.73;;;0.60;;
8982;SDS011;20979;59.850;10.660;2024-03-22T00:51:20;1.43;;;0.70;;
8982;SDS011;20979;59.850;10.660;2024-03-22T00:53:47;0.60;;;0.60;;
8982;SDS011;20979;59.850;10.660;2024-03-22T00:56:14;1.33;;;0.50;;
8982;SDS011;20979;59.850;10.660;2024-03-22T00:58:41;3.00;;;1.30;;
8982;SDS011;20979;59.850;10.660;2024-03-22T01:01:08;1.70;;;1.40;;
8982;SDS011;20979;59.850;10.660;2024-03-22T01:03:34;2.70;;;1.47;;
8982;SDS011;20979;59.850;10.660;2024-03-22T01:06:03;2.33;;;1.53;;
8982;SDS011;20979;59.850;10.660;2024-03-22T01:08:30;4.43;;;1.70;;
8982;SDS011;20979;59.850;10.660;2024-03-22T01:10:57;2.93;;;1.43;;
8982;SDS011;20979;59.850;10.660;2024-03-22T01:13:23;4.60;;;1.60;;
8982;SDS011;20979;59.850;10.660;2024-03-22T01:15:51;2.47;;;1.47;;
8982;SDS011;20979;59.850;10.660;2024-03-22T01:18:17;2.23;;;1.30;;
8982;SDS011;20979;59.850;10.660;2024-03-22T01:20:45;1.30;;;1.13;;
8982;SDS011;20979;59.850;10.660;2024-03-22T01:23:13;2.10;;;1.20;;
8982;SDS011;20979;59.850;10.660;2024-03-22T01:25:40;3.53;;;1.50;;
8982;SDS011;20979;59.850;10.660;2024-03-22T01:28:07;3.17;;;1.70;;
8982;SDS011;20979;59.850;10.660;2024-03-22T01:30:34;2.40;;;1.40;;
8982;SDS011;20979;59.850;10.660;2024-03-22T01:33:02;1.60;;;1.27;;
8982;SDS011;20979;59.850;10.660;2024-03-22T01:35:29;3.50;;;1.60;;
8982;SDS011;20979;59.850;10.660;2024-03-22T01:37:55;1.67;;;1.30;;
8982;SDS011;20979;59.850;10.660;2024-03-22T01:40:24;11.03;;;2.00;;
8982;SDS011;20979;59.850;10.660;2024-03-22T01:42:52;13.43;;;2.10;;
8982;SDS011;20979;59.850;10.660;2024-03-22T01:45:20;1.80;;;1.27;;
8982;SDS011;20979;59.850;10.660;2024-03-22T01:47:47;2.70;;;1.40;;
8982;SDS011;20979;59.850;10.660;2024-03-22T01:50:15;1.53;;;1.43;;
8982;SDS011;20979;59.850;10.660;2024-03-22T01:52:41;1.37;;;1.27;;
8982;SDS011;20979;59.850;10.660;2024-03-22T01:55:08;99.33;;;7.70;;
8982;SDS011;20979;59.850;10.660;2024-03-22T01:57:36;2.70;;;1.07;;
8982;SDS011;20979;59.850;10.660;2024-03-22T02:00:05;1.50;;;1.30;;
8982;SDS011;20979;59.850;10.660;2024-03-22T02:02:33;1.50;;;1.40;;
8982;SDS011;20979;59.850;10.660;2024-03-22T02:05:11;2.30;;;1.30;;
8982;SDS011;20979;59.850;10.660;2024-03-22T02:07:37;34.57;;;3.27;;
8982;SDS011;20979;59.850;10.660;2024-03-22T02:10:07;1.40;;;1.30;;
8982;SDS011;20979;59.850;10.660;2024-03-22T02:12:37;1.33;;;1.23;;
8982;SDS011;20979;59.850;10.660;2024-03-22T02:15:04;1.70;;;1.33;;
8982;SDS011;20979;59.850;10.660;2024-03-22T02:17:32;1.77;;;1.40;;
8982;SDS011;20979;59.850;10.660;2024-03-22T02:19:59;53.33;;;4.90;;
8982;SDS011;20979;59.850;10.660;2024-03-22T02:22:26;1.40;;;1.30;;
8982;SDS011;20979;59.850;10.660;2024-03-22T02:24:54;3.53;;;1.73;;
8982;SDS011;20979;59.850;10.660;2024-03-22T02:27:21;1.70;;;1.60;;
8982;SDS011;20979;59.850;10.660;2024-03-22T02:29:48;1.30;;;1.20;;
8982;SDS011;20979;59.850;10.660;2024-03-22T02:32:14;2.57;;;1.37;;
8982;SDS011;20979;59.850;10.660;2024-03-22T02:34:42;1.37;;;1.27;;
8982;SDS011;20979;59.850;10.660;2024-03-22T02:37:08;4.70;;;1.10;;
8982;SDS011;20979;59.850;10.660;2024-03-22T02:39:35;1.00;;;0.90;;
8982;SDS011;20979;59.850;10.660;2024-03-22T02:42:04;1.10;;;1.00;;
8982;SDS011;20979;59.850;10.660;2024-03-22T02:44:31;0.97;;;0.97;;
8982;SDS011;20979;59.850;10.660;2024-03-22T02:46:58;1.13;;;0.87;;
8982;SDS011;20979;59.850;10.660;2024-03-22T02:49:26;1.10;;;0.80;;
8982;SDS011;20979;59.850;10.660;2024-03-22T02:51:53;1.53;;;1.10;;
8982;SDS011;20979;59.850;10.660;2024-03-22T02:54:19;0.80;;;0.80;;
8982;SDS011;20979;59.850;10.660;2024-03-22T02:56:47;1.40;;;1.10;;
8982;SDS011;20979;59.850;10.660;2024-03-22T02:59:14;1.13;;;0.87;;
8982;SDS011;20979;59.850;10.660;2024-03-22T03:01:42;1.20;;;1.10;;
8982;SDS011;20979;59.850;10.660;2024-03-22T03:04:08;3.00;;;1.30;;
8982;SDS011;20979;59.850;10.660;2024-03-22T03:06:35;2.00;;;1.50;;
8982;SDS011;20979;59.850;10.660;2024-03-22T03:09:02;1.80;;;1.17;;
8982;SDS011;20979;59.850;10.660;2024-03-22T03:11:31;2.70;;;1.10;;
8982;SDS011;20979;59.850;10.660;2024-03-22T03:13:58;1.30;;;1.20;;
8982;SDS011;20979;59.850;10.660;2024-03-22T03:16:27;3.20;;;1.80;;
8982;SDS011;20979;59.850;10.660;2024-03-22T03:18:53;3.40;;;2.17;;
8982;SDS011;20979;59.850;10.660;2024-03-22T03:21:20;3.00;;;2.00;;
8982;SDS011;20979;59.850;10.660;2024-03-22T03:23:48;12.80;;;2.43;;
8982;SDS011;20979;59.850;10.660;2024-03-22T03:26:14;65.63;;;6.17;;
8982;SDS011;20979;59.850;10.660;2024-03-22T03:28:41;45.53;;;4.53;;
8982;SDS011;20979;59.850;10.660;2024-03-22T03:31:08;88.23;;;9.07;;
8982;SDS011;20979;59.850;10.660;2024-03-22T03:33:36;21.23;;;3.43;;
8982;SDS011;20979;59.850;10.660;2024-03-22T03:36:03;83.00;;;6.27;;
8982;SDS011;20979;59.850;10.660;2024-03-22T03:38:30;77.80;;;6.17;;
8982;SDS011;20979;59.850;10.660;2024-03-22T03:40:57;44.17;;;3.40;;
8982;SDS011;20979;59.850;10.660;2024-03-22T03:43:24;18.57;;;2.20;;
8982;SDS011;20979;59.850;10.660;2024-03-22T03:45:51;8.60;;;2.50;;
8982;SDS011;20979;59.850;10.660;2024-03-22T03:48:19;61.23;;;5.27;;
8982;SDS011;20979;59.850;10.660;2024-03-22T03:50:52;27.37;;;3.07;;
8982;SDS011;20979;59.850;10.660;2024-03-22T03:53:19;5.10;;;1.70;;
8982;SDS011;20979;59.850;10.660;2024-03-22T03:55:46;5.23;;;1.23;;
8982;SDS011;20979;59.850;10.660;2024-03-22T03:58:13;1.97;;;1.40;;
8982;SDS011;20979;59.850;10.660;2024-03-22T04:00:40;4.87;;;1.50;;
8982;SDS011;20979;59.850;10.660;2024-03-22T04:03:07;1.43;;;1.30;;
8982;SDS011;20979;59.850;10.660;2024-03-22T04:05:33;4.13;;;2.13;;
8982;SDS011;20979;59.850;10.660;2024-03-22T04:08:02;12.13;;;2.23;;
8982;SDS011;20979;59.850;10.660;2024-03-22T04:10:29;4.37;;;1.13;;
8982;SDS011;20979;59.850;10.660;2024-03-22T04:12:56;4.70;;;2.10;;
8982;SDS011;20979;59.850;10.660;2024-03-22T04:15:22;16.40;;;2.70;;
8982;SDS011;20979;59.850;10.660;2024-03-22T04:17:50;3.20;;;1.90;;
8982;SDS011;20979;59.850;10.660;2024-03-22T04:20:16;7.00;;;2.43;;
8982;SDS011;20979;59.850;10.660;2024-03-22T04:22:43;7.40;;;2.77;;
8982;SDS011;20979;59.850;10.660;2024-03-22T04:25:11;3.30;;;2.60;;
8982;SDS011;20979;59.850;10.660;2024-03-22T04:27:39;3.70;;;2.67;;
8982;SDS011;20979;59.850;10.660;2024-03-22T04:30:06;4.27;;;2.57;;
8982;SDS011;20979;59.850;10.660;2024-03-22T04:32:33;2.83;;;2.10;;
8982;SDS011;20979;59.850;10.660;2024-03-22T04:35:00;2.73;;;2.43;;
8982;SDS011;20979;59.850;10.660;2024-03-22T04:37:27;4.60;;;2.53;;
8982;SDS011;20979;59.850;10.660;2024-03-22T04:39:54;2.87;;;2.20;;
8982;SDS011;20979;59.850;10.660;2024-03-22T04:42:23;9.87;;;2.40;;
8982;SDS011;20979;59.850;10.660;2024-03-22T04:44:51;3.13;;;2.40;;
8982;SDS011;20979;59.850;10.660;2024-03-22T04:47:17;3.80;;;2.00;;
8982;SDS011;20979;59.850;10.660;2024-03-22T04:49:44;4.37;;;2.20;;
8982;SDS011;20979;59.850;10.660;2024-03-22T04:52:11;10.47;;;2.90;;
8982;SDS011;20979;59.850;10.660;2024-03-22T04:54:38;2.40;;;2.20;;
8982;SDS011;20979;59.850;10.660;2024-03-22T04:57:04;2.47;;;2.23;;
8982;SDS011;20979;59.850;10.660;2024-03-22T04:59:33;2.33;;;2.13;;
8982;SDS011;20979;59.850;10.660;2024-03-22T05:01:59;2.27;;;2.07;;
8982;SDS011;20979;59.850;10.660;2024-03-22T05:04:27;2.27;;;2.07;;
8982;SDS011;20979;59.850;10.660;2024-03-22T05:06:53;2.63;;;2.00;;
8982;SDS011;20979;59.850;10.660;2024-03-22T05:09:20;2.50;;;2.30;;
8982;SDS011;20979;59.850;10.660;2024-03-22T05:11:47;2.10;;;1.90;;
8982;SDS011;20979;59.850;10.660;2024-03-22T05:14:16;2.57;;;2.00;;
8982;SDS011;20979;59.850;10.660;2024-03-22T05:16:43;2.20;;;1.80;;
8982;SDS011;20979;59.850;10.660;2024-03-22T05:19:11;2.03;;;1.90;;
8982;SDS011;20979;59.850;10.660;2024-03-22T05:21:37;2.00;;;1.80;;
8982;SDS011;20979;59.850;10.660;2024-03-22T05:24:05;1.73;;;1.63;;
8982;SDS011;20979;59.850;10.660;2024-03-22T05:26:31;1.90;;;1.80;;
8982;SDS011;20979;59.850;10.660;2024-03-22T05:29:01;1.83;;;1.73;;
8982;SDS011;20979;59.850;10.660;2024-03-22T05:31:28;1.83;;;1.60;;
8982;SDS011;20979;59.850;10.660;2024-03-22T05:33:56;1.70;;;1.60;;
8982;SDS011;20979;59.850;10.660;2024-03-22T05:36:23;1.60;;;1.33;;
8982;SDS011;20979;59.850;10.660;2024-03-22T05:38:51;1.60;;;1.50;;
8982;SDS011;20979;59.850;10.660;2024-03-22T05:41:17;1.40;;;1.30;;
8982;SDS011;20979;59.850;10.660;2024-03-22T05:43:44;1.30;;;1.20;;
8982;SDS011;20979;59.850;10.660;2024-03-22T05:46:10;1.40;;;1.30;;
8982;SDS011;20979;59.850;10.660;2024-03-22T05:48:38;1.20;;;1.10;;
8982;SDS011;20979;59.850;10.660;2024-03-22T05:51:06;1.30;;;1.20;;
8982;SDS011;20979;59.850;10.660;2024-03-22T05:53:33;1.20;;;1.10;;
8982;SDS011;20979;59.850;10.660;2024-03-22T05:56:00;1.50;;;1.40;;
8982;SDS011;20979;59.850;10.660;2024-03-22T05:58:27;1.93;;;1.30;;
8982;SDS011;20979;59.850;10.660;2024-03-22T06:00:53;2.10;;;1.30;;
8982;SDS011;20979;59.850;10.660;2024-03-22T06:03:21;13.70;;;1.97;;
8982;SDS011;20979;59.850;10.660;2024-03-22T06:05:47;1.50;;;1.30;;
8982;SDS011;20979;59.850;10.660;2024-03-22T06:08:16;2.20;;;0.90;;
8982;SDS011;20979;59.850;10.660;2024-03-22T06:10:44;40.10;;;4.00;;
8982;SDS011;20979;59.850;10.660;2024-03-22T06:13:11;12.97;;;2.00;;
8982;SDS011;20979;59.850;10.660;2024-03-22T06:15:38;39.53;;;3.90;;
8982;SDS011;20979;59.850;10.660;2024-03-22T06:18:05;1.77;;;1.67;;
8982;SDS011;20979;59.850;10.660;2024-03-22T06:20:32;1.77;;;1.67;;
8982;SDS011;20979;59.850;10.660;2024-03-22T06:22:59;1.73;;;1.63;;
8982;SDS011;20979;59.850;10.660;2024-03-22T06:25:27;1.70;;;1.60;;
8982;SDS011;20979;59.850;10.660;2024-03-22T06:27:54;1.90;;;1.63;;
8982;SDS011;20979;59.850;10.660;2024-03-22T06:30:21;1.60;;;1.50;;
8982;SDS011;20979;59.850;10.660;2024-03-22T06:32:48;1.50;;;1.40;;
8982;SDS011;20979;59.850;10.660;2024-03-22T06:35:15;1.70;;;1.60;;
8982;SDS011;20979;59.850;10.660;2024-03-22T06:37:42;1.50;;;1.40;;
8982;SDS011;20979;59.850;10.660;2024-03-22T06:40:09;3.03;;;1.50;;
8982;SDS011;20979;59.850;10.660;2024-03-22T06:42:38;2.03;;;1.83;;
8982;SDS011;20979;59.850;10.660;2024-03-22T06:45:04;1.70;;;1.60;;
8982;SDS011;20979;59.850;10.660;2024-03-22T06:47:32;8.07;;;1.73;;
8982;SDS011;20979;59.850;10.660;2024-03-22T06:49:58;12.67;;;1.90;;
8982;SDS011;20979;59.850;10.660;2024-03-22T06:52:26;2.37;;;1.73;;
8982;SDS011;20979;59.850;10.660;2024-03-22T06:54:52;3.63;;;1.80;;
8982;SDS011;20979;59.850;10.660;2024-03-22T06:57:20;1.77;;;1.53;;
8982;SDS011;20979;59.850;10.660;2024-03-22T06:59:47;3.67;;;2.40;;
8982;SDS011;20979;59.850;10.660;2024-03-22T07:02:15;2.30;;;2.10;;
8982;SDS011;20979;59.850;10.660;2024-03-22T07:04:41;3.90;;;3.40;;
8982;SDS011;20979;59.850;10.660;2024-03-22T07:07:08;3.53;;;2.80;;
8982;SDS011;20979;59.850;10.660;2024-03-22T07:09:35;6.00;;;2.17;;
8982;SDS011;20979;59.850;10.660;2024-03-22T07:12:02;2.30;;;2.10;;
8982;SDS011;20979;59.850;10.660;2024-03-22T07:14:29;3.73;;;2.30;;
8982;SDS011;20979;59.850;10.660;2024-03-22T07:16:57;2.97;;;1.90;;
8982;SDS011;20979;59.850;10.660;2024-03-22T07:19:24;2.30;;;1.80;;
8982;SDS011;20979;59.850;10.660;2024-03-22T07:21:52;2.23;;;1.90;;
8982;SDS011;20979;59.850;10.660;2024-03-22T07:24:18;2.40;;;2.20;;
8982;SDS011;20979;59.850;10.660;2024-03-22T07:26:49;2.10;;;2.00;;
8982;SDS011;20979;59.850;10.660;2024-03-22T07:29:15;1.70;;;1.60;;
8982;SDS011;20979;59.850;10.660;2024-03-22T07:31:42;1.67;;;1.57;;
8982;SDS011;20979;59.850;10.660;2024-03-22T07:34:10;1.83;;;1.60;;
8982;SDS011;20979;59.850;10.660;2024-03-22T07:36:37;1.70;;;1.60;;
8982;SDS011;20979;59.850;10.660;2024-03-22T07:39:04;1.43;;;1.30;;
8982;SDS011;20979;59.850;10.660;2024-03-22T07:41:33;1.63;;;1.50;;
8982;SDS011;20979;59.850;10.660;2024-03-22T07:43:59;1.67;;;1.57;;
8982;SDS011;20979;59.850;10.660;2024-03-22T07:46:27;1.87;;;1.50;;
8982;SDS011;20979;59.850;10.660;2024-03-22T07:48:54;1.77;;;1.67;;
8982;SDS011;20979;59.850;10.660;2024-03-22T07:51:23;2.27;;;1.73;;
8982;SDS011;20979;59.850;10.660;2024-03-22T07:53:49;1.63;;;1.30;;
8982;SDS011;20979;59.850;10.660;2024-03-22T07:56:17;1.87;;;1.60;;
8982;SDS011;20979;59.850;10.660;2024-03-22T07:58:44;2.30;;;1.70;;
8982;SDS011;20979;59.850;10.660;2024-03-22T08:01:12;1.27;;;1.17;;
8982;SDS011;20979;59.850;10.660;2024-03-22T08:03:38;2.00;;;1.80;;
8982;SDS011;20979;59.850;10.660;2024-03-22T08:06:05;2.87;;;2.27;;
8982;SDS011;20979;59.850;10.660;2024-03-22T08:08:33;2.97;;;2.10;;
8982;SDS011;20979;59.850;10.660;2024-03-22T08:11:02;2.30;;;2.10;;
8982;SDS011;20979;59.850;10.660;2024-03-22T08:13:28;2.53;;;2.00;;
8982;SDS011;20979;59.850;10.660;2024-03-22T08:15:58;1.60;;;1.50;;
8982;SDS011;20979;59.850;10.660;2024-03-22T08:18:27;2.17;;;1.97;;
8982;SDS011;20979;59.850;10.660;2024-03-22T08:20:55;3.03;;;1.80;;
8982;SDS011;20979;59.850;10.660;2024-03-22T08:23:21;2.50;;;1.50;;
8982;SDS011;20979;59.850;10.660;2024-03-22T08:25:50;2.20;;;1.40;;
8982;SDS011;20979;59.850;10.660;2024-03-22T08:28:17;1.43;;;0.93;;
8982;SDS011;20979;59.850;10.660;2024-03-22T08:30:45;1.57;;;1.10;;
8982;SDS011;20979;59.850;10.660;2024-03-22T08:36:26;2.10;;;0.90;;
8982;SDS011;20979;59.850;10.660;2024-03-22T08:39:05;2.27;;;0.90;;
8982;SDS011;20979;59.850;10.660;2024-03-22T08:41:36;2.10;;;0.97;;
8982;SDS011;20979;59.850;10.660;2024-03-22T08:46:52;4.53;;;1.30;;
8982;SDS011;20979;59.850;10.660;2024-03-22T08:49:29;1.70;;;1.07;;
8982;SDS011;20979;59.850;10.660;2024-03-22T08:51:55;4.13;;;1.40;;
8982;SDS011;20979;59.850;10.660;2024-03-22T08:54:48;2.50;;;1.17;;
8982;SDS011;20979;59.850;10.660;2024-03-22T08:57:17;1.73;;;1.27;;
8982;SDS011;20979;59.850;10.660;2024-03-22T08:59:47;2.10;;;1.10;;
8982;SDS011;20979;59.850;10.660;2024-03-22T09:02:15;4.07;;;1.40;;
8982;SDS011;20979;59.850;10.660;2024-03-22T09:04:41;2.77;;;1.20;;
8982;SDS011;20979;59.850;10.660;2024-03-22T09:07:09;2.90;;;1.23;;
8982;SDS011;20979;59.850;10.660;2024-03-22T09:09:36;1.93;;;0.93;;
8982;SDS011;20979;59.850;10.660;2024-03-22T09:12:25;2.37;;;1.13;;
8982;SDS011;20979;59.850;10.660;2024-03-22T09:14:53;2.77;;;1.17;;
8982;SDS011;20979;59.850;10.660;2024-03-22T09:17:19;2.67;;;1.37;;
8982;SDS011;20979;59.850;10.660;2024-03-22T09:19:47;2.83;;;1.47;;
8982;SDS011;20979;59.850;10.660;2024-03-22T09:22:14;4.07;;;1.70;;
8982;SDS011;20979;59.850;10.660;2024-03-22T09:24:41;2.67;;;1.20;;
8982;SDS011;20979;59.850;10.660;2024-03-22T09:27:10;1.97;;;1.23;;
8982;SDS011;20979;59.850;10.660;2024-03-22T09:29:39;2.53;;;1.33;;
8982;SDS011;20979;59.850;10.660;2024-03-22T09:32:06;4.57;;;1.50;;
8982;SDS011;20979;59.850;10.660;2024-03-22T09:37:12;2.60;;;1.30;;
8982;SDS011;20979;59.850;10.660;2024-03-22T09:39:39;2.90;;;1.30;;
8982;SDS011;20979;59.850;10.660;2024-03-22T09:42:17;3.13;;;1.20;;
8982;SDS011;20979;59.850;10.660;2024-03-22T09:44:49;3.17;;;1.37;;
8982;SDS011;20979;59.850;10.660;2024-03-22T09:47:22;2.57;;;1.50;;
8982;SDS011;20979;59.850;10.660;2024-03-22T09:49:52;4.07;;;1.70;;
8982;SDS011;20979;59.850;10.660;2024-03-22T09:52:21;4.00;;;1.70;;
8982;SDS011;20979;59.850;10.660;2024-03-22T09:54:51;2.67;;;1.70;;
8982;SDS011;20979;59.850;10.660;2024-03-22T09:57:18;3.70;;;1.70;;
8982;SDS011;20979;59.850;10.660;2024-03-22T09:59:48;4.83;;;1.80;;
8982;SDS011;20979;59.850;10.660;2024-03-22T10:02:15;4.67;;;1.73;;
8982;SDS011;20979;59.850;10.660;2024-03-22T10:04:43;4.23;;;1.60;;
8982;SDS011;20979;59.850;10.660;2024-03-22T10:07:10;5.20;;;2.10;;
8982;SDS011;20979;59.850;10.660;2024-03-22T10:09:40;3.47;;;1.57;;
8982;SDS011;20979;59.850;10.660;2024-03-22T10:12:07;5.50;;;1.70;;
8982;SDS011;20979;59.850;10.660;2024-03-22T10:14:50;5.03;;;1.80;;
8982;SDS011;20979;59.850;10.660;2024-03-22T10:17:19;3.97;;;1.60;;
8982;SDS011;20979;59.850;10.660;2024-03-22T10:19:48;5.57;;;1.63;;
8982;SDS011;20979;59.850;10.660;2024-03-22T10:22:16;3.80;;;1.73;;
8982;SDS011;20979;59.850;10.660;2024-03-22T10:24:43;4.57;;;1.63;;
8982;SDS011;20979;59.850;10.660;2024-03-22T10:27:13;4.30;;;1.70;;
8982;SDS011;20979;59.850;10.660;2024-03-22T10:29:43;4.17;;;1.77;;
8982;SDS011;20979;59.850;10.660;2024-03-22T10:32:11;4.20;;;1.67;;
8982;SDS011;20979;59.850;10.660;2024-03-22T10:34:39;3.63;;;1.80;;
8982;SDS011;20979;59.850;10.660;2024-03-22T10:37:06;5.37;;;1.60;;
8982;SDS011;20979;59.850;10.660;2024-03-22T10:39:35;6.20;;;1.57;;
8982;SDS011;20979;59.850;10.660;2024-03-22T10:42:03;6.87;;;1.63;;
8982;SDS011;20979;59.850;10.660;2024-03-22T10:44:30;3.27;;;1.60;;
8982;SDS011;20979;59.850;10.660;2024-03-22T10:46:56;3.73;;;1.60;;
8982;SDS011;20979;59.850;10.660;2024-03-22T10:49:28;4.17;;;1.77;;
8982;SDS011;20979;59.850;10.660;2024-03-22T10:51:56;4.10;;;1.80;;
8982;SDS011;20979;59.850;10.660;2024-03-22T10:54:27;6.17;;;2.40;;
8982;SDS011;20979;59.850;10.660;2024-03-22T10:56:54;4.67;;;1.80;;
8982;SDS011;20979;59.850;10.660;2024-03-22T10:59:22;4.30;;;1.50;;
8982;SDS011;20979;59.850;10.660;2024-03-22T11:01:48;4.47;;;1.63;;
8982;SDS011;20979;59.850;10.660;2024-03-22T11:04:31;5.53;;;1.70;;
8982;SDS011;20979;59.850;10.660;2024-03-22T11:06:59;2.90;;;1.60;;
8982;SDS011;20979;59.850;10.660;2024-03-22T11:09:29;6.90;;;1.60;;
8982;SDS011;20979;59.850;10.660;2024-03-22T11:12:10;4.47;;;1.73;;
8982;SDS011;20979;59.850;10.660;2024-03-22T11:14:39;4.73;;;1.63;;
8982;SDS011;20979;59.850;10.660;2024-03-22T11:17:06;3.37;;;1.70;;
8982;SDS011;20979;59.850;10.660;2024-03-22T11:19:35;4.83;;;1.60;;
8982;SDS011;20979;59.850;10.660;2024-03-22T11:22:05;3.87;;;1.53;;
8982;SDS011;20979;59.850;10.660;2024-03-22T11:24:37;4.77;;;1.87;;
8982;SDS011;20979;59.850;10.660;2024-03-22T11:27:03;3.60;;;1.50;;
8982;SDS011;20979;59.850;10.660;2024-03-22T11:29:30;2.77;;;1.57;;
8982;SDS011;20979;59.850;10.660;2024-03-22T11:32:00;2.93;;;1.53;;
8982;SDS011;20979;59.850;10.660;2024-03-22T11:34:37;3.03;;;1.50;;
8982;SDS011;20979;59.850;10.660;2024-03-22T11:37:22;3.03;;;1.50;;
8982;SDS011;20979;59.850;10.660;2024-03-22T11:39:51;3.10;;;1.23;;
8982;SDS011;20979;59.850;10.660;2024-03-22T11:42:18;2.63;;;1.30;;
8982;SDS011;20979;59.850;10.660;2024-03-22T11:45:02;3.57;;;1.50;;
8982;SDS011;20979;59.850;10.660;2024-03-22T11:47:31;4.77;;;1.60;;
8982;SDS011;20979;59.850;10.660;2024-03-22T11:55:54;3.67;;;1.37;;
8982;SDS011;20979;59.850;10.660;2024-03-22T11:58:21;2.27;;;1.40;;
8982;SDS011;20979;59.850;10.660;2024-03-22T12:00:51;1.90;;;1.03;;
8982;SDS011;20979;59.850;10.660;2024-03-22T12:03:18;3.73;;;1.17;;
8982;SDS011;20979;59.850;10.660;2024-03-22T12:06:55;2.17;;;1.07;;
8982;SDS011;20979;59.850;10.660;2024-03-22T12:08:51;2.20;;;1.17;;
8982;SDS011;20979;59.850;10.660;2024-03-22T12:11:22;2.83;;;0.93;;
8982;SDS011;20979;59.850;10.660;2024-03-22T12:13:48;2.97;;;0.90;;
8982;SDS011;20979;59.850;10.660;2024-03-22T12:16:15;2.43;;;0.60;;
8982;SDS011;20979;59.850;10.660;2024-03-22T12:18:42;2.97;;;0.83;;
8982;SDS011;20979;59.850;10.660;2024-03-22T12:21:11;2.00;;;0.97;;
8982;SDS011;20979;59.850;10.660;2024-03-22T12:23:37;3.40;;;1.03;;
8982;SDS011;20979;59.850;10.660;2024-03-22T12:26:04;2.37;;;1.13;;
8982;SDS011;20979;59.850;10.660;2024-03-22T12:34:39;0.97;;;0.77;;
8982;SDS011;20979;59.850;10.660;2024-03-22T12:37:20;1.13;;;0.70;;
8982;SDS011;20979;59.850;10.660;2024-03-22T12:39:48;1.90;;;0.90;;
8982;SDS011;20979;59.850;10.660;2024-03-22T12:42:44;2.20;;;0.80;;
8982;SDS011;20979;59.850;10.660;2024-03-22T12:45:12;2.00;;;0.77;;
8982;SDS011;20979;59.850;10.660;2024-03-22T12:47:38;0.90;;;0.63;;
8982;SDS011;20979;59.850;10.660;2024-03-22T12:50:07;1.17;;;0.80;;
8982;SDS011;20979;59.850;10.660;2024-03-22T12:52:34;1.80;;;0.77;;
8982;SDS011;20979;59.850;10.660;2024-03-22T12:55:02;1.23;;;0.90;;
8982;SDS011;20979;59.850;10.660;2024-03-22T12:58:00;1.67;;;0.80;;
8982;SDS011;20979;59.850;10.660;2024-03-22T13:00:43;1.60;;;0.60;;
8982;SDS011;20979;59.850;10.660;2024-03-22T13:03:09;1.30;;;0.77;;
8982;SDS011;20979;59.850;10.660;2024-03-22T13:05:40;2.20;;;0.60;;
8982;SDS011;20979;59.850;10.660;2024-03-22T13:08:26;0.60;;;0.50;;
8982;SDS011;20979;59.850;10.660;2024-03-22T13:10:54;1.33;;;0.50;;
8982;SDS011;20979;59.850;10.660;2024-03-22T13:13:20;1.13;;;0.53;;
8982;SDS011;20979;59.850;10.660;2024-03-22T13:15:50;2.07;;;0.50;;
8982;SDS011;20979;59.850;10.660;2024-03-22T13:18:16;0.67;;;0.40;;
8982;SDS011;20979;59.850;10.660;2024-03-22T13:20:46;1.70;;;0.50;;
8982;SDS011;20979;59.850;10.660;2024-03-22T13:23:13;0.67;;;0.60;;
8982;SDS011;20979;59.850;10.660;2024-03-22T13:25:40;1.97;;;0.83;;
8982;SDS011;20979;59.850;10.660;2024-03-22T13:28:06;1.27;;;0.60;;
8982;SDS011;20979;59.850;10.660;2024-03-22T13:30:34;0.77;;;0.40;;
8982;SDS011;20979;59.850;10.660;2024-03-22T13:33:02;0.53;;;0.30;;
8982;SDS011;20979;59.850;10.660;2024-03-22T13:35:32;0.57;;;0.50;;
8982;SDS011;20979;59.850;10.660;2024-03-22T13:38:02;1.57;;;0.37;;
8982;SDS011;20979;59.850;10.660;2024-03-22T13:40:30;1.40;;;0.97;;
8982;SDS011;20979;59.850;10.660;2024-03-22T13:46:29;1.30;;;0.53;;
8982;SDS011;20979;59.850;10.660;2024-03-22T13:48:57;3.47;;;0.50;;
8982;SDS011;20979;59.850;10.660;2024-03-22T13:51:24;1.17;;;0.50;;
8982;SDS011;20979;59.850;10.660;2024-03-22T13:53:54;4.17;;;0.57;;
8982;SDS011;20979;59.850;10.660;2024-03-22T13:57:23;0.53;;;0.30;;
8982;SDS011;20979;59.850;10.660;2024-03-22T13:59:26;0.40;;;0.40;;
8982;SDS011;20979;59.850;10.660;2024-03-22T14:01:54;3.23;;;0.63;;
8982;SDS011;20979;59.850;10.660;2024-03-22T14:04:21;0.87;;;0.40;;
8982;SDS011;20979;59.850;10.660;2024-03-22T14:06:50;0.63;;;0.30;;
8982;SDS011;20979;59.850;10.660;2024-03-22T14:09:18;0.83;;;0.53;;
8982;SDS011;20979;59.850;10.660;2024-03-22T14:12:04;1.93;;;0.47;;
8982;SDS011;20979;59.850;10.660;2024-03-22T14:14:31;1.03;;;0.40;;
8982;SDS011;20979;59.850;10.660;2024-03-22T14:16:58;0.83;;;0.50;;
8982;SDS011;20979;59.850;10.660;2024-03-22T14:19:25;1.03;;;0.53;;
8982;SDS011;20979;59.850;10.660;2024-03-22T14:21:51;0.60;;;0.50;;
8982;SDS011;20979;59.850;10.660;2024-03-22T14:24:20;0.70;;;0.33;;
8982;SDS011;20979;59.850;10.660;2024-03-22T14:26:48;2.20;;;0.60;;
8982;SDS011;20979;59.850;10.660;2024-03-22T14:29:15;3.20;;;0.63;;
8982;SDS011;20979;59.850;10.660;2024-03-22T14:31:42;1.90;;;0.50;;
8982;SDS011;20979;59.850;10.660;2024-03-22T14:34:11;3.60;;;0.57;;
8982;SDS011;20979;59.850;10.660;2024-03-22T14:36:37;0.73;;;0.50;;
8982;SDS011;20979;59.850;10.660;2024-03-22T14:39:05;2.00;;;0.60;;
8982;SDS011;20979;59.850;10.660;2024-03-22T14:41:33;1.17;;;0.40;;
8982;SDS011;20979;59.850;10.660;2024-03-22T14:44:01;3.93;;;0.70;;
8982;SDS011;20979;59.850;10.660;2024-03-22T14:46:27;1.37;;;0.50;;
8982;SDS011;20979;59.850;10.660;2024-03-22T14:49:04;2.63;;;0.83;;
8982;SDS011;20979;59.850;10.660;2024-03-22T14:51:43;0.30;;;0.30;;
8982;SDS011;20979;59.850;10.660;2024-03-22T14:54:42;1.07;;;0.40;;
8982;SDS011;20979;59.850;10.660;2024-03-22T14:57:36;2.03;;;0.40;;
8982;SDS011;20979;59.850;10.660;2024-03-22T15:00:18;2.10;;;0.63;;
8982;SDS011;20979;59.850;10.660;2024-03-22T15:02:45;1.77;;;0.40;;
8982;SDS011;20979;59.850;10.660;2024-03-22T15:05:12;1.17;;;0.50;;
8982;SDS011;20979;59.850;10.660;2024-03-22T15:07:42;1.97;;;0.57;;
8982;SDS011;20979;59.850;10.660;2024-03-22T15:10:11;0.60;;;0.20;;
8982;SDS011;20979;59.850;10.660;2024-03-22T15:12:40;3.93;;;0.47;;
8982;SDS011;20979;59.850;10.660;2024-03-22T15:15:22;0.40;;;0.33;;
8982;SDS011;20979;59.850;10.660;2024-03-22T15:17:50;2.63;;;0.33;;
8982;SDS011;20979;59.850;10.660;2024-03-22T15:20:16;0.53;;;0.30;;
8982;SDS011;20979;59.850;10.660;2024-03-22T15:25:46;0.67;;;0.10;;